Time;durP1;ratioP1;P1;durP2;ratioP2;P2;SDS_P1;SDS_P2;PMS_P1;PMS_P2;Temp;Humidity;BMP_temperature;BMP_pressure;BME280_temperature;BME280_humidity;BME280_pressure;Samples;Min_cycle;Max_cycle;Signal;HPM_P1;HPM_P2
2023/12/03 00:02:47;;;;;;;8.80;4.70;;;;;;;;;;103739;1291;544656;-73
2023/12/03 00:06:27;;;;;;;8.10;4.60;;;;;;;;;;103877;1291;544866;-75
2023/12/03 00:10:01;;;;;;;9.10;4.60;;;;;;;;;;104159;1288;545390;-74
2023/12/03 00:13:39;;;;;;;10.10;5.20;;;;;;;;;;103758;1292;544862;-75
2023/12/03 00:17:12;;;;;;;8.90;5.60;;;;;;;;;;103903;1288;545063;-74
2023/12/03 00:20:54;;;;;;;9.40;5.70;;;;;;;;;;103759;1292;544610;-75
2023/12/03 00:24:31;;;;;;;10.20;5.40;;;;;;;;;;103756;1297;545444;-74
2023/12/03 00:28:08;;;;;;;9.60;5.10;;;;;;;;;;103758;1292;545614;-73
2023/12/03 00:31:46;;;;;;;10.50;5.30;;;;;;;;;;103636;1295;545971;-73
2023/12/03 00:35:20;;;;;;;9.70;5.70;;;;;;;;;;104092;1288;545316;-74
2023/12/03 00:39:00;;;;;;;9.30;5.60;;;;;;;;;;103783;1289;545647;-73
2023/12/03 00:42:40;;;;;;;9.80;5.10;;;;;;;;;;103672;1294;544949;-74
2023/12/03 00:46:18;;;;;;;9.10;5.50;;;;;;;;;;103808;1289;545044;-75
2023/12/03 00:49:54;;;;;;;10.60;5.70;;;;;;;;;;103755;1291;544958;-75
2023/12/03 00:53:30;;;;;;;11.10;6.20;;;;;;;;;;103766;1302;545662;-77
2023/12/03 00:57:09;;;;;;;9.70;5.50;;;;;;;;;;104008;1289;545001;-74
2023/12/03 01:00:49;;;;;;;9.30;5.50;;;;;;;;;;103835;1291;544896;-73
2023/12/03 01:04:23;;;;;;;10.80;6.70;;;;;;;;;;103752;1293;545055;-73
2023/12/03 01:08:01;;;;;;;12.20;6.50;;;;;;;;;;103760;1293;544794;-73
2023/12/03 01:11:42;;;;;;;12.60;6.60;;;;;;;;;;103749;1291;545001;-74
2023/12/03 01:15:16;;;;;;;11.00;6.90;;;;;;;;;;104255;1285;544860;-72
2023/12/03 01:18:53;;;;;;;11.70;7.60;;;;;;;;;;103700;1291;545715;-73
2023/12/03 01:22:32;;;;;;;11.60;7.20;;;;;;;;;;103823;1291;544895;-73
2023/12/03 01:26:11;;;;;;;10.40;6.40;;;;;;;;;;103705;1292;545493;-77
2023/12/03 01:29:48;;;;;;;12.10;7.30;;;;;;;;;;103853;1292;546324;-73
2023/12/03 01:33:23;;;;;;;14.80;8.70;;;;;;;;;;103755;1294;545348;-74
2023/12/03 01:37:00;;;;;;;12.80;7.80;;;;;;;;;;103765;1292;544970;-75
2023/12/03 01:40:38;;;;;;;13.20;7.80;;;;;;;;;;103746;1296;545229;-77
2023/12/03 01:44:15;;;;;;;13.10;7.80;;;;;;;;;;103585;1294;544870;-74
2023/12/03 01:47:53;;;;;;;13.70;7.80;;;;;;;;;;103872;1291;545048;-74
2023/12/03 01:51:31;;;;;;;12.70;7.60;;;;;;;;;;103756;1291;545038;-73
2023/12/03 01:55:10;;;;;;;12.30;7.00;;;;;;;;;;103638;1292;545188;-73
2023/12/03 01:58:45;;;;;;;13.40;8.00;;;;;;;;;;103737;1290;545024;-74
2023/12/03 02:02:23;;;;;;;14.10;8.60;;;;;;;;;;103742;1295;545776;-77
2023/12/03 02:06:03;;;;;;;12.50;7.50;;;;;;;;;;103848;1288;546021;-74
2023/12/03 02:09:38;;;;;;;12.70;7.50;;;;;;;;;;103992;1288;545809;-74
2023/12/03 02:13:15;;;;;;;12.80;8.00;;;;;;;;;;103797;1297;545451;-73
2023/12/03 02:16:53;;;;;;;13.20;8.30;;;;;;;;;;103694;1292;544944;-74
2023/12/03 02:20:30;;;;;;;14.00;7.80;;;;;;;;;;104159;1286;545021;-75
2023/12/03 02:24:03;;;;;;;12.30;7.30;;;;;;;;;;103791;1303;545239;-75
2023/12/03 02:27:50;;;;;;;12.40;8.00;;;;;;;;;;103921;1290;548006;-75
2023/12/03 02:31:27;;;;;;;12.90;8.10;;;;;;;;;;103717;1293;547750;-73
2023/12/03 02:35:00;;;;;;;12.10;7.10;;;;;;;;;;104598;1285;545309;-74
2023/12/03 02:38:37;;;;;;;12.50;7.70;;;;;;;;;;103759;1289;545560;-74
2023/12/03 02:42:14;;;;;;;11.90;7.70;;;;;;;;;;103700;1292;545066;-75
2023/12/03 02:45:49;;;;;;;13.20;7.40;;;;;;;;;;103830;1289;545032;-73
2023/12/03 02:49:34;;;;;;;11.90;6.40;;;;;;;;;;103823;1291;544761;-75
2023/12/03 02:53:08;;;;;;;11.50;6.60;;;;;;;;;;103698;1295;545004;-74
2023/12/03 02:56:45;;;;;;;12.50;7.40;;;;;;;;;;103850;1293;545969;-75
2023/12/03 03:00:28;;;;;;;13.30;7.50;;;;;;;;;;103728;1290;548073;-77
2023/12/03 03:03:59;;;;;;;10.90;6.40;;;;;;;;;;103856;1294;544844;-74
2023/12/03 03:07:36;;;;;;;10.80;6.50;;;;;;;;;;103926;1289;544847;-73
2023/12/03 03:11:16;;;;;;;12.80;7.30;;;;;;;;;;103692;1291;545332;-78
2023/12/03 03:14:52;;;;;;;11.80;6.60;;;;;;;;;;103753;1295;545394;-76
2023/12/03 03:18:29;;;;;;;10.50;5.80;;;;;;;;;;104143;1286;545989;-74
2023/12/03 03:22:07;;;;;;;12.10;6.90;;;;;;;;;;103721;1292;545101;-76
2023/12/03 03:25:44;;;;;;;12.10;6.90;;;;;;;;;;104271;1285;544862;-73
2023/12/03 03:29:22;;;;;;;11.20;6.70;;;;;;;;;;103479;1300;545647;-75
2023/12/03 03:32:59;;;;;;;11.00;6.30;;;;;;;;;;103701;1295;545085;-74
2023/12/03 03:36:37;;;;;;;11.30;6.20;;;;;;;;;;104030;1289;546017;-74
2023/12/03 03:40:10;;;;;;;10.30;6.00;;;;;;;;;;103776;1292;544926;-74
2023/12/03 03:43:52;;;;;;;10.30;6.10;;;;;;;;;;103854;1289;545515;-77
2023/12/03 03:47:29;;;;;;;11.50;5.90;;;;;;;;;;103819;1291;544776;-74
2023/12/03 03:51:08;;;;;;;10.10;5.60;;;;;;;;;;103747;1288;545175;-77
2023/12/03 03:54:44;;;;;;;10.20;5.90;;;;;;;;;;103925;1295;544906;-75
2023/12/03 03:58:23;;;;;;;10.60;5.60;;;;;;;;;;103779;1290;545348;-75
2023/12/03 04:01:58;;;;;;;10.10;5.50;;;;;;;;;;103805;1293;546075;-74
2023/12/03 04:05:36;;;;;;;9.60;5.60;;;;;;;;;;103833;1292;545596;-78
2023/12/03 04:09:19;;;;;;;9.50;5.70;;;;;;;;;;103397;1295;549148;-73
2023/12/03 04:12:51;;;;;;;10.30;5.50;;;;;;;;;;103830;1297;544848;-74
2023/12/03 04:16:28;;;;;;;10.40;5.30;;;;;;;;;;103767;1289;545001;-74
2023/12/03 04:20:06;;;;;;;9.30;5.30;;;;;;;;;;103790;1290;545937;-73
2023/12/03 04:23:43;;;;;;;15.40;9.00;;;;;;;;;;104063;1288;545667;-76
2023/12/03 04:27:21;;;;;;;10.80;6.60;;;;;;;;;;103875;1292;544866;-73
2023/12/03 04:30:58;;;;;;;13.30;7.70;;;;;;;;;;103759;1295;545750;-73
2023/12/03 04:34:38;;;;;;;10.70;6.30;;;;;;;;;;103879;1291;545042;-75
2023/12/03 04:38:14;;;;;;;11.50;6.20;;;;;;;;;;103703;1291;546193;-75
2023/12/03 04:41:51;;;;;;;10.80;6.10;;;;;;;;;;103617;1293;544798;-78
2023/12/03 04:45:29;;;;;;;10.90;6.10;;;;;;;;;;103930;1289;545012;-74
2023/12/03 04:49:06;;;;;;;10.20;5.90;;;;;;;;;;103844;1291;545393;-74
2023/12/03 04:52:43;;;;;;;10.90;6.40;;;;;;;;;;103847;1292;544990;-74
2023/12/03 04:56:20;;;;;;;11.90;6.60;;;;;;;;;;104213;1288;545101;-74
2023/12/03 04:59:58;;;;;;;11.00;6.30;;;;;;;;;;103839;1291;544764;-73
2023/12/03 05:03:36;;;;;;;10.70;6.20;;;;;;;;;;103854;1290;544951;-76
2023/12/03 05:07:13;;;;;;;11.90;6.40;;;;;;;;;;103817;1288;545334;-75
2023/12/03 05:10:51;;;;;;;12.40;7.10;;;;;;;;;;103765;1295;544764;-74
2023/12/03 05:14:32;;;;;;;11.50;6.50;;;;;;;;;;103734;1294;545013;-76
2023/12/03 05:18:06;;;;;;;12.40;6.40;;;;;;;;;;103469;1294;546008;-74
2023/12/03 05:21:43;;;;;;;12.10;7.10;;;;;;;;;;103750;1288;545962;-74
2023/12/03 05:25:21;;;;;;;15.90;8.40;;;;;;;;;;103829;1289;544976;-73
2023/12/03 05:28:59;;;;;;;12.90;7.10;;;;;;;;;;103730;1289;545541;-74
2023/12/03 05:32:55;;;;;;;13.10;7.00;;;;;;;;;;103487;1295;547848;-74
2023/12/03 05:36:22;;;;;;;14.50;8.20;;;;;;;;;;103802;1288;544962;-75
2023/12/03 05:39:51;;;;;;;12.70;7.70;;;;;;;;;;103806;1295;544790;-73
2023/12/03 05:43:30;;;;;;;13.70;8.10;;;;;;;;;;103743;1292;545677;-73
2023/12/03 05:47:05;;;;;;;12.40;6.70;;;;;;;;;;103752;1291;545006;-73
2023/12/03 05:50:48;;;;;;;13.60;7.80;;;;;;;;;;103710;1301;545049;-75
2023/12/03 05:54:21;;;;;;;14.80;8.30;;;;;;;;;;103781;1291;545255;-76
2023/12/03 05:57:58;;;;;;;15.20;8.80;;;;;;;;;;103468;1294;545068;-80
2023/12/03 06:01:35;;;;;;;14.00;8.20;;;;;;;;;;103700;1295;544773;-73
2023/12/03 06:05:13;;;;;;;14.00;8.70;;;;;;;;;;103586;1293;545588;-73
2023/12/03 06:08:52;;;;;;;14.20;8.70;;;;;;;;;;103649;1294;545775;-74
2023/12/03 06:12:28;;;;;;;13.50;8.50;;;;;;;;;;103789;1289;545526;-76
2023/12/03 06:16:05;;;;;;;13.40;8.30;;;;;;;;;;104208;1285;544924;-74
2023/12/03 06:19:44;;;;;;;12.90;7.20;;;;;;;;;;103607;1298;545961;-77
2023/12/03 06:23:26;;;;;;;14.10;8.80;;;;;;;;;;103545;1294;547947;-74
2023/12/03 06:26:58;;;;;;;15.20;8.80;;;;;;;;;;103688;1291;544964;-78
2023/12/03 06:30:36;;;;;;;14.30;8.30;;;;;;;;;;103750;1292;546127;-75
2023/12/03 06:34:15;;;;;;;14.90;8.40;;;;;;;;;;103720;1291;545026;-74
2023/12/03 06:37:50;;;;;;;14.90;8.70;;;;;;;;;;103697;1289;545119;-74
2023/12/03 06:41:23;;;;;;;15.90;9.80;;;;;;;;;;104800;1286;544741;-75
2023/12/03 06:45:31;;;;;;;15.10;9.50;;;;;;;;;;103528;1293;549318;-75
2023/12/03 06:48:43;;;;;;;14.20;9.00;;;;;;;;;;103676;1293;545354;-74
2023/12/03 06:52:22;;;;;;;19.50;11.30;;;;;;;;;;103728;1291;544852;-75
2023/12/03 06:56:09;;;;;;;17.50;10.90;;;;;;;;;;104008;1288;545453;-75
2023/12/03 06:59:35;;;;;;;18.30;10.70;;;;;;;;;;103762;1291;545059;-73
2023/12/03 07:03:16;;;;;;;24.10;13.50;;;;;;;;;;104459;1282;545193;-74
2023/12/03 07:06:49;;;;;;;17.50;10.60;;;;;;;;;;103621;1297;545024;-74
2023/12/03 07:10:47;;;;;;;16.80;9.80;;;;;;;;;;103781;1292;544912;-75
2023/12/03 07:14:06;;;;;;;15.70;9.30;;;;;;;;;;103734;1292;545744;-73
2023/12/03 07:17:41;;;;;;;16.60;9.70;;;;;;;;;;103746;1302;546804;-73
2023/12/03 07:21:19;;;;;;;16.20;10.10;;;;;;;;;;103770;1290;545058;-74
2023/12/03 07:24:57;;;;;;;16.60;9.60;;;;;;;;;;103801;1292;544888;-72
2023/12/03 07:28:34;;;;;;;15.00;9.00;;;;;;;;;;104099;1290;545693;-75
2023/12/03 07:32:12;;;;;;;15.70;9.50;;;;;;;;;;103774;1290;544975;-74
2023/12/03 07:35:49;;;;;;;16.00;10.10;;;;;;;;;;103731;1295;544796;-77
2023/12/03 07:39:28;;;;;;;15.60;9.90;;;;;;;;;;103630;1295;545901;-73
2023/12/03 07:43:05;;;;;;;15.40;9.10;;;;;;;;;;103714;1291;545103;-77
2023/12/03 07:46:41;;;;;;;16.10;9.60;;;;;;;;;;103789;1292;545857;-76
2023/12/03 07:50:19;;;;;;;15.20;9.50;;;;;;;;;;103761;1289;545459;-74
2023/12/03 07:53:56;;;;;;;16.40;9.50;;;;;;;;;;103848;1289;545350;-73
2023/12/03 07:57:34;;;;;;;14.90;9.00;;;;;;;;;;103811;1289;544957;-75
2023/12/03 08:01:11;;;;;;;15.70;9.70;;;;;;;;;;104105;1289;545707;-75
2023/12/03 08:04:49;;;;;;;16.60;10.50;;;;;;;;;;103771;1289;545484;-74
2023/12/03 08:08:22;;;;;;;17.70;10.60;;;;;;;;;;103957;1289;544906;-74
2023/12/03 08:12:04;;;;;;;15.50;10.00;;;;;;;;;;103603;1292;545366;-73
2023/12/03 08:15:50;;;;;;;18.10;11.20;;;;;;;;;;104264;1286;545093;-80
2023/12/03 08:19:24;;;;;;;19.10;11.80;;;;;;;;;;103722;1291;548548;-77
2023/12/03 08:22:59;;;;;;;19.50;12.40;;;;;;;;;;103719;1292;546775;-73
2023/12/03 08:26:39;;;;;;;17.80;10.50;;;;;;;;;;103595;1292;545249;-78
2023/12/03 08:30:14;;;;;;;17.70;11.00;;;;;;;;;;103611;1291;545897;-74
2023/12/03 08:34:10;;;;;;;18.50;11.00;;;;;;;;;;103739;1289;545394;-73
2023/12/03 08:37:45;;;;;;;19.10;12.40;;;;;;;;;;103592;1298;545049;-72
2023/12/03 08:41:04;;;;;;;21.10;11.90;;;;;;;;;;103751;1289;544963;-76
2023/12/03 08:44:41;;;;;;;20.90;13.50;;;;;;;;;;103847;1294;545790;-74
2023/12/03 08:48:24;;;;;;;19.80;12.60;;;;;;;;;;103767;1291;549121;-78
2023/12/03 08:51:56;;;;;;;26.40;17.00;;;;;;;;;;103822;1290;545480;-75
2023/12/03 08:55:34;;;;;;;23.30;14.70;;;;;;;;;;103776;1301;544970;-72
2023/12/03 08:59:10;;;;;;;18.90;11.90;;;;;;;;;;104533;1282;545573;-73
2023/12/03 09:02:48;;;;;;;24.80;16.30;;;;;;;;;;103554;1295;544798;-73
2023/12/03 09:06:27;;;;;;;19.20;12.40;;;;;;;;;;103527;1295;544959;-73
2023/12/03 09:10:23;;;;;;;20.70;14.70;;;;;;;;;;103612;1295;547949;-76
2023/12/03 09:13:41;;;;;;;20.70;13.70;;;;;;;;;;103555;1295;545890;-76
2023/12/03 09:17:22;;;;;;;19.50;13.40;;;;;;;;;;103582;1294;545374;-76
2023/12/03 09:20:56;;;;;;;18.30;12.60;;;;;;;;;;103810;1289;544777;-74
2023/12/03 09:24:33;;;;;;;20.30;14.60;;;;;;;;;;103743;1295;546276;-78
2023/12/03 09:28:11;;;;;;;20.60;14.20;;;;;;;;;;104050;1287;545534;-77
2023/12/03 09:31:48;;;;;;;19.20;12.70;;;;;;;;;;103819;1291;545968;-73
2023/12/03 09:35:30;;;;;;;19.50;13.40;;;;;;;;;;103766;1294;545960;-72
2023/12/03 09:39:06;;;;;;;19.90;14.10;;;;;;;;;;103638;1289;548312;-74
2023/12/03 09:42:48;;;;;;;20.80;15.10;;;;;;;;;;104109;1285;548116;-74
2023/12/03 09:46:22;;;;;;;22.10;17.90;;;;;;;;;;103367;1297;545291;-74
2023/12/03 09:49:57;;;;;;;21.00;15.00;;;;;;;;;;103864;1289;545340;-74
2023/12/03 09:53:35;;;;;;;16.80;12.30;;;;;;;;;;103483;1292;545866;-75
2023/12/03 09:57:17;;;;;;;18.50;14.10;;;;;;;;;;103735;1291;545048;-73
2023/12/03 10:01:12;;;;;;;16.80;12.60;;;;;;;;;;103499;1296;548162;-74
2023/12/03 10:04:55;;;;;;;16.60;11.30;;;;;;;;;;103903;1289;548124;-74
2023/12/03 10:18:52;;;;;;;22.40;15.70;;;;;;;;;;104313;1285;553260;-81
2023/12/03 10:21:51;;;;;;;17.30;13.30;;;;;;;;;;103786;1295;547807;-79
2023/12/03 10:25:27;;;;;;;19.30;14.90;;;;;;;;;;103749;1292;546015;-75
2023/12/03 10:29:03;;;;;;;20.20;14.10;;;;;;;;;;103476;1294;544930;-75
2023/12/03 10:33:06;;;;;;;15.80;11.40;;;;;;;;;;103871;1292;548215;-74
2023/12/03 10:36:43;;;;;;;22.20;15.10;;;;;;;;;;103752;1289;549165;-77
2023/12/03 10:40:14;;;;;;;16.30;11.60;;;;;;;;;;103830;1288;544995;-75
2023/12/03 10:43:39;;;;;;;32.20;23.90;;;;;;;;;;103623;1294;547969;-75
2023/12/03 10:47:20;;;;;;;16.50;11.50;;;;;;;;;;103669;1295;546743;-76
2023/12/03 10:50:47;;;;;;;14.60;9.90;;;;;;;;;;104585;1284;544757;-76
2023/12/03 10:55:11;;;;;;;14.50;10.20;;;;;;;;;;103711;1294;545750;-78
2023/12/03 10:58:07;;;;;;;14.50;10.40;;;;;;;;;;103622;1291;546238;-75
2023/12/03 11:01:55;;;;;;;17.30;12.00;;;;;;;;;;103752;1292;547787;-75
2023/12/03 11:05:38;;;;;;;12.30;8.80;;;;;;;;;;103854;1292;545701;-75
2023/12/03 11:08:59;;;;;;;12.20;8.00;;;;;;;;;;103678;1290;544878;-76
2023/12/03 11:12:32;;;;;;;13.60;9.00;;;;;;;;;;103496;1298;545241;-75
2023/12/03 11:16:20;;;;;;;11.80;7.80;;;;;;;;;;104261;1283;547798;-77
2023/12/03 11:19:45;;;;;;;23.40;14.50;;;;;;;;;;103840;1289;545028;-80
2023/12/03 11:23:46;;;;;;;57.60;35.10;;;;;;;;;;103558;1297;546009;-77
2023/12/03 11:27:12;;;;;;;25.70;16.30;;;;;;;;;;104159;1286;545960;-80
2023/12/03 11:31:01;;;;;;;32.50;22.80;;;;;;;;;;103575;1292;545510;-81
2023/12/03 11:34:39;;;;;;;17.40;12.00;;;;;;;;;;103753;1292;548029;-76
2023/12/03 11:37:58;;;;;;;16.00;10.70;;;;;;;;;;103661;1289;547826;-76
2023/12/03 11:42:06;;;;;;;23.90;17.90;;;;;;;;;;103709;1294;548111;-79
2023/12/03 11:45:35;;;;;;;14.90;11.00;;;;;;;;;;103910;1289;544750;-78
2023/12/03 11:48:56;;;;;;;17.90;11.90;;;;;;;;;;103602;1295;548698;-79
2023/12/03 11:52:24;;;;;;;28.70;18.20;;;;;;;;;;104274;1289;545168;-80
2023/12/03 11:56:07;;;;;;;48.90;32.10;;;;;;;;;;103766;1292;544942;-79
2023/12/03 11:59:47;;;;;;;30.10;21.20;;;;;;;;;;103743;1291;545060;-74
2023/12/03 12:03:40;;;;;;;20.80;13.70;;;;;;;;;;103674;1295;545234;-76
2023/12/03 12:06:55;;;;;;;18.20;12.50;;;;;;;;;;103907;1289;545986;-76
2023/12/03 12:11:12;;;;;;;15.20;10.10;;;;;;;;;;103795;1295;548003;-80
2023/12/03 12:14:39;;;;;;;14.00;9.00;;;;;;;;;;103818;1295;550432;-78
2023/12/03 12:18:06;;;;;;;13.20;8.40;;;;;;;;;;103831;1292;546415;-74
2023/12/03 12:21:29;;;;;;;34.50;22.10;;;;;;;;;;103652;1291;545305;-75
2023/12/03 12:25:09;;;;;;;27.30;17.90;;;;;;;;;;103785;1290;547768;-80
2023/12/03 12:28:56;;;;;;;31.50;20.30;;;;;;;;;;103584;1291;545434;-79
2023/12/03 12:33:07;;;;;;;32.50;17.60;;;;;;;;;;103385;1293;545545;-84
2023/12/03 12:35:52;;;;;;;16.80;11.60;;;;;;;;;;103794;1289;545404;-78
2023/12/03 12:39:35;;;;;;;45.90;38.10;;;;;;;;;;103689;1289;548094;-75
2023/12/03 12:43:27;;;;;;;36.60;25.40;;;;;;;;;;103758;1292;547773;-81
2023/12/03 12:46:55;;;;;;;23.80;18.30;;;;;;;;;;103620;1292;546334;-78
2023/12/03 12:50:42;;;;;;;20.80;14.00;;;;;;;;;;103906;1295;544999;-77
2023/12/03 12:54:23;;;;;;;33.90;19.60;;;;;;;;;;104769;1292;545523;-76
2023/12/03 12:57:43;;;;;;;20.20;11.10;;;;;;;;;;103441;1298;545259;-77
2023/12/03 13:01:44;;;;;;;18.40;10.70;;;;;;;;;;103670;1296;549418;-76
2023/12/03 13:05:13;;;;;;;18.90;11.40;;;;;;;;;;103628;1292;545549;-74
2023/12/03 13:08:35;;;;;;;20.60;11.40;;;;;;;;;;103733;1289;545020;-76
2023/12/03 13:12:17;;;;;;;21.10;13.20;;;;;;;;;;103489;1295;545447;-77
2023/12/03 13:15:47;;;;;;;20.90;13.00;;;;;;;;;;103847;1292;544942;-81
2023/12/03 13:19:44;;;;;;;19.90;10.80;;;;;;;;;;104260;1292;549062;-78
2023/12/03 13:23:51;;;;;;;16.90;9.10;;;;;;;;;;103694;1295;545555;-79
2023/12/03 13:27:07;;;;;;;17.40;10.20;;;;;;;;;;103591;1292;548050;-75
2023/12/03 13:30:52;;;;;;;32.00;19.40;;;;;;;;;;103571;1297;546224;-79
2023/12/03 13:34:12;;;;;;;39.10;22.30;;;;;;;;;;103826;1302;544963;-74
2023/12/03 13:37:55;;;;;;;25.20;19.30;;;;;;;;;;103729;1291;545106;-74
2023/12/03 13:41:43;;;;;;;17.90;11.70;;;;;;;;;;103679;1292;549364;-78
2023/12/03 13:45:07;;;;;;;20.10;12.80;;;;;;;;;;103649;1292;545256;-75
2023/12/03 13:48:43;;;;;;;46.60;29.40;;;;;;;;;;103583;1292;545434;-75
2023/12/03 13:52:26;;;;;;;19.50;13.70;;;;;;;;;;103658;1292;548209;-76
2023/12/03 13:56:01;;;;;;;18.00;11.30;;;;;;;;;;103773;1289;545330;-76
2023/12/03 13:59:56;;;;;;;15.40;9.20;;;;;;;;;;103889;1294;545617;-75
2023/12/03 14:03:28;;;;;;;18.10;11.20;;;;;;;;;;103563;1295;547752;-76
2023/12/03 14:17:48;;;;;;;20.90;12.30;;;;;;;;;;104226;1287;553641;-76
2023/12/03 14:20:35;;;;;;;33.30;22.20;;;;;;;;;;104065;1286;544906;-76
2023/12/03 14:24:16;;;;;;;22.80;14.50;;;;;;;;;;103540;1294;548023;-76
2023/12/03 14:27:53;;;;;;;22.10;12.80;;;;;;;;;;103675;1291;546738;-75
2023/12/03 14:32:11;;;;;;;;;;;;;;;;;;;;;
2023/12/03 14:35:15;;;;;;;13.60;8.90;;;;;;;;;;103959;1288;546162;-74
2023/12/03 14:39:20;;;;;;;14.10;9.00;;;;;;;;;;103809;1292;548114;-75
2023/12/03 14:42:36;;;;;;;21.10;13.50;;;;;;;;;;103973;1289;545838;-74
2023/12/03 14:46:19;;;;;;;38.40;22.50;;;;;;;;;;103586;1295;545429;-75
2023/12/03 14:49:48;;;;;;;21.70;14.60;;;;;;;;;;103600;1295;545651;-78
2023/12/03 14:53:36;;;;;;;19.60;12.80;;;;;;;;;;103598;1296;547699;-77
2023/12/03 14:57:14;;;;;;;17.40;11.80;;;;;;;;;;103715;1293;545025;-78
2023/12/03 15:01:12;;;;;;;17.90;10.70;;;;;;;;;;104375;1287;545873;-77
2023/12/03 15:04:22;;;;;;;18.90;12.00;;;;;;;;;;103507;1305;544896;-77
2023/12/03 15:07:59;;;;;;;35.80;21.80;;;;;;;;;;103712;1291;545601;-76
2023/12/03 15:11:36;;;;;;;33.80;21.30;;;;;;;;;;103760;1292;544737;-79
2023/12/03 15:15:13;;;;;;;36.80;19.50;;;;;;;;;;103767;1292;544771;-79
2023/12/03 15:19:00;;;;;;;51.60;29.90;;;;;;;;;;103590;1294;549221;-76
2023/12/03 15:22:46;;;;;;;57.80;33.40;;;;;;;;;;103437;1291;547938;-76
2023/12/03 15:26:12;;;;;;;52.10;29.80;;;;;;;;;;103627;1293;548071;-75
2023/12/03 15:30:21;;;;;;;38.60;24.40;;;;;;;;;;103931;1295;545946;-81
2023/12/03 15:33:20;;;;;;;46.00;28.10;;;;;;;;;;103784;1303;545417;-75
2023/12/03 15:37:00;;;;;;;30.30;17.70;;;;;;;;;;103905;1290;544762;-74
2023/12/03 15:40:40;;;;;;;35.40;21.00;;;;;;;;;;103793;1291;545002;-74
2023/12/03 15:44:33;;;;;;;44.30;26.80;;;;;;;;;;103703;1289;545428;-76
2023/12/03 15:47:56;;;;;;;49.70;30.50;;;;;;;;;;103128;1296;548133;-76
2023/12/03 15:51:27;;;;;;;50.10;30.50;;;;;;;;;;103681;1292;545988;-76
2023/12/03 15:55:11;;;;;;;32.70;20.40;;;;;;;;;;103840;1289;549286;-80
2023/12/03 15:58:42;;;;;;;48.70;28.90;;;;;;;;;;103807;1290;545038;-74
2023/12/03 16:02:19;;;;;;;101.40;56.20;;;;;;;;;;103826;1290;545008;-75
2023/12/03 16:06:01;;;;;;;77.20;50.00;;;;;;;;;;103628;1294;547998;-74
2023/12/03 16:09:35;;;;;;;109.60;74.50;;;;;;;;;;103909;1290;544796;-75
2023/12/03 16:13:19;;;;;;;76.50;50.10;;;;;;;;;;103736;1295;545728;-76
2023/12/03 16:16:58;;;;;;;68.90;42.00;;;;;;;;;;103703;1293;545441;-76
2023/12/03 16:20:27;;;;;;;53.90;30.50;;;;;;;;;;103718;1291;544875;-76
2023/12/03 16:24:12;;;;;;;47.30;31.00;;;;;;;;;;103904;1292;545373;-82
2023/12/03 16:28:09;;;;;;;56.10;38.80;;;;;;;;;;103832;1291;547987;-82
2023/12/03 16:31:27;;;;;;;53.50;38.90;;;;;;;;;;103659;1291;545134;-76
2023/12/03 16:35:17;;;;;;;59.00;38.60;;;;;;;;;;103506;1296;547822;-79
2023/12/03 16:38:44;;;;;;;54.60;35.90;;;;;;;;;;103942;1295;545937;-77
2023/12/03 16:42:28;;;;;;;71.20;50.80;;;;;;;;;;103544;1297;545225;-79
2023/12/03 16:46:17;;;;;;;60.00;39.50;;;;;;;;;;103813;1292;547790;-75
2023/12/03 16:49:23;;;;;;;77.50;51.90;;;;;;;;;;103949;1288;544960;-79
2023/12/03 16:53:05;;;;;;;51.20;32.40;;;;;;;;;;103754;1294;547872;-75
2023/12/03 16:57:05;;;;;;;89.70;48.60;;;;;;;;;;104156;1292;545143;-82
2023/12/03 17:00:32;;;;;;;57.90;35.10;;;;;;;;;;103225;1300;545423;-74
2023/12/03 17:04:18;;;;;;;75.10;42.30;;;;;;;;;;103730;1292;546569;-74
2023/12/03 17:08:17;;;;;;;48.50;28.40;;;;;;;;;;103714;1295;545413;-79
2023/12/03 17:11:49;;;;;;;79.80;43.50;;;;;;;;;;103893;1292;547773;-76
2023/12/03 17:15:12;;;;;;;58.70;33.40;;;;;;;;;;104040;1286;548019;-78
2023/12/03 17:18:41;;;;;;;62.40;37.70;;;;;;;;;;103688;1292;547666;-75
2023/12/03 17:22:18;;;;;;;57.00;35.80;;;;;;;;;;103782;1289;547952;-75
2023/12/03 17:25:59;;;;;;;49.80;31.60;;;;;;;;;;103626;1294;545928;-74
2023/12/03 17:29:33;;;;;;;44.00;27.80;;;;;;;;;;103796;1292;544819;-75
2023/12/03 17:33:35;;;;;;;37.70;25.10;;;;;;;;;;103622;1292;545452;-74
2023/12/03 17:36:54;;;;;;;45.30;30.80;;;;;;;;;;103716;1293;549164;-82
2023/12/03 17:40:28;;;;;;;104.00;44.90;;;;;;;;;;103625;1295;545432;-77
2023/12/03 17:44:19;;;;;;;90.10;38.90;;;;;;;;;;103988;1292;547948;-75
2023/12/03 17:47:51;;;;;;;30.20;17.70;;;;;;;;;;103922;1292;545216;-73
2023/12/03 17:51:25;;;;;;;64.80;30.10;;;;;;;;;;103791;1295;545680;-75
2023/12/03 17:55:19;;;;;;;31.00;19.30;;;;;;;;;;103681;1293;544980;-75
2023/12/03 17:58:43;;;;;;;50.50;27.40;;;;;;;;;;104040;1291;545897;-83
2023/12/03 18:02:08;;;;;;;65.10;36.80;;;;;;;;;;103735;1289;544919;-75
2023/12/03 18:06:08;;;;;;;42.60;26.80;;;;;;;;;;103709;1292;545566;-75
2023/12/03 18:10:04;;;;;;;28.20;18.80;;;;;;;;;;103865;1291;545225;-74
2023/12/03 18:13:00;;;;;;;29.40;20.10;;;;;;;;;;103894;1289;545286;-73
2023/12/03 18:16:42;;;;;;;27.00;20.40;;;;;;;;;;104475;1282;545088;-75
2023/12/03 18:20:41;;;;;;;23.90;17.20;;;;;;;;;;103642;1292;547804;-76
2023/12/03 18:23:55;;;;;;;23.90;16.00;;;;;;;;;;103926;1289;545067;-75
2023/12/03 18:27:32;;;;;;;24.60;16.50;;;;;;;;;;103997;1288;545583;-74
2023/12/03 18:31:08;;;;;;;25.00;16.10;;;;;;;;;;103635;1294;545611;-76
2023/12/03 18:34:52;;;;;;;24.80;18.10;;;;;;;;;;103968;1289;545042;-75
2023/12/03 18:38:24;;;;;;;25.20;17.20;;;;;;;;;;103780;1289;545786;-74
2023/12/03 18:42:12;;;;;;;21.80;15.10;;;;;;;;;;103755;1295;545451;-75
2023/12/03 18:46:12;;;;;;;;;;;;;;;;;;;;;
2023/12/03 18:49:51;;;;;;;28.90;18.60;;;;;;;;;;103622;1295;547983;-75
2023/12/03 18:52:56;;;;;;;29.60;19.30;;;;;;;;;;103614;1292;548995;-76
2023/12/03 18:56:36;;;;;;;27.40;18.60;;;;;;;;;;103570;1292;545482;-79
2023/12/03 19:00:33;;;;;;;25.40;15.70;;;;;;;;;;103710;1296;545933;-81
2023/12/03 19:04:11;;;;;;;31.00;19.30;;;;;;;;;;103793;1294;545464;-74
2023/12/03 19:07:39;;;;;;;35.40;21.20;;;;;;;;;;103197;1300;545408;-78
2023/12/03 19:11:08;;;;;;;40.00;24.90;;;;;;;;;;103812;1295;547620;-75
2023/12/03 19:15:03;;;;;;;23.30;15.80;;;;;;;;;;103487;1295;545437;-75
2023/12/03 19:18:52;;;;;;;31.00;22.00;;;;;;;;;;103809;1295;545834;-74
2023/12/03 19:22:20;;;;;;;31.80;21.10;;;;;;;;;;103759;1295;547922;-78
2023/12/03 19:25:45;;;;;;;27.30;19.40;;;;;;;;;;103717;1295;547868;-76
2023/12/03 19:29:34;;;;;;;30.70;19.40;;;;;;;;;;103657;1295;547849;-75
2023/12/03 19:32:54;;;;;;;29.90;19.20;;;;;;;;;;103700;1291;549832;-75
2023/12/03 19:36:24;;;;;;;26.80;19.50;;;;;;;;;;103845;1290;544864;-74
2023/12/03 19:40:46;;;;;;;28.10;20.30;;;;;;;;;;103666;1295;545528;-75
2023/12/03 19:44:04;;;;;;;26.10;16.80;;;;;;;;;;103794;1289;545415;-75
2023/12/03 19:47:32;;;;;;;26.60;16.80;;;;;;;;;;103809;1298;549188;-75
2023/12/03 19:51:03;;;;;;;30.70;18.80;;;;;;;;;;103802;1288;548463;-76
2023/12/03 19:55:01;;;;;;;32.70;21.30;;;;;;;;;;103660;1294;549209;-82
2023/12/03 19:58:39;;;;;;;30.00;17.20;;;;;;;;;;103559;1297;545207;-78
2023/12/03 20:02:15;;;;;;;28.40;16.10;;;;;;;;;;103713;1295;547980;-75
2023/12/03 20:05:32;;;;;;;33.80;18.80;;;;;;;;;;103619;1292;547972;-79
2023/12/03 20:09:29;;;;;;;30.30;18.90;;;;;;;;;;103694;1294;545244;-81
2023/12/03 20:13:15;;;;;;;30.10;16.90;;;;;;;;;;103756;1292;551117;-76
2023/12/03 20:16:18;;;;;;;31.40;16.90;;;;;;;;;;103736;1290;546006;-76
2023/12/03 20:20:06;;;;;;;40.60;23.70;;;;;;;;;;103627;1295;545369;-78
2023/12/03 20:23:32;;;;;;;32.40;18.80;;;;;;;;;;103674;1291;545517;-75
2023/12/03 20:27:11;;;;;;;39.60;24.50;;;;;;;;;;103624;1295;548095;-78
2023/12/03 20:31:13;;;;;;;24.40;14.80;;;;;;;;;;103755;1292;548391;-74
2023/12/03 20:34:36;;;;;;;18.30;11.40;;;;;;;;;;103436;1294;548006;-80
2023/12/03 20:38:12;;;;;;;16.90;9.90;;;;;;;;;;103542;1296;549107;-76
2023/12/03 20:41:45;;;;;;;18.60;11.80;;;;;;;;;;103778;1297;549327;-75
2023/12/03 20:45:21;;;;;;;20.90;12.70;;;;;;;;;;104523;1288;547798;-74
2023/12/03 20:49:24;;;;;;;47.00;23.00;;;;;;;;;;103660;1297;547881;-74
2023/12/03 20:52:36;;;;;;;30.50;16.60;;;;;;;;;;103884;1292;548102;-74
2023/12/03 20:56:35;;;;;;;28.80;18.00;;;;;;;;;;104134;1292;545870;-74
2023/12/03 21:00:11;;;;;;;73.90;38.70;;;;;;;;;;103618;1297;545577;-75